Time;durP1;ratioP1;P1;durP2;ratioP2;P2;SDS_P1;SDS_P2;PMS_P1;PMS_P2;Temp;Humidity;BMP_temperature;BMP_pressure;BME280_temperature;BME280_humidity;BME280_pressure;Samples;Min_cycle;Max_cycle;Signal;HPM_P1;HPM_P2
2023/03/22 00:00:50;;;;;;;5.60;4.50;;;11.60;99.90;;;;;;5025803;28;20197;-76
2023/03/22 00:03:16;;;;;;;5.55;4.13;;;11.60;99.90;;;;;;5028571;28;20188;-77
2023/03/22 00:05:42;;;;;;;7.75;4.40;;;11.50;99.90;;;;;;5027136;28;20193;-77
2023/03/22 00:08:08;;;;;;;4.43;4.03;;;11.50;99.90;;;;;;5034942;28;20180;-76
2023/03/22 00:10:36;;;;;;;6.28;4.63;;;11.50;99.90;;;;;;5025500;28;20692;-78
2023/03/22 00:13:03;;;;;;;4.85;4.45;;;11.50;99.90;;;;;;5032238;28;20193;-78
2023/03/22 00:15:29;;;;;;;4.68;4.28;;;11.50;99.90;;;;;;5029657;28;20196;-78
2023/03/22 00:17:58;;;;;;;4.25;3.85;;;11.50;99.90;;;;;;5032725;28;20687;-77
2023/03/22 00:20:32;;;;;;;5.25;3.90;;;11.40;99.90;;;;;;5032064;28;20223;-77
2023/03/22 00:22:59;;;;;;;4.82;4.32;;;11.40;99.90;;;;;;5033367;28;20179;-77
2023/03/22 00:25:24;;;;;;;7.13;4.70;;;11.40;99.90;;;;;;5034353;28;20177;-77
2023/03/22 00:27:50;;;;;;;5.32;4.85;;;11.30;99.90;;;;;;5038946;28;20268;-77
2023/03/22 00:30:16;;;;;;;5.20;4.68;;;11.40;99.90;;;;;;5037025;28;20200;-77
2023/03/22 00:32:42;;;;;;;6.82;4.68;;;11.30;99.90;;;;;;5027861;28;20608;-77
2023/03/22 00:35:09;;;;;;;5.32;4.82;;;11.40;99.90;;;;;;5031885;28;20452;-77
2023/03/22 00:37:37;;;;;;;6.75;5.55;;;11.40;99.90;;;;;;5028204;28;20310;-77
2023/03/22 00:40:10;;;;;;;6.63;5.18;;;11.30;99.90;;;;;;5028513;28;20214;-78
2023/03/22 00:42:36;;;;;;;5.25;4.75;;;11.30;99.90;;;;;;5030835;28;20284;-77
2023/03/22 00:45:03;;;;;;;5.88;5.28;;;11.30;99.90;;;;;;5032561;28;20191;-78
2023/03/22 00:47:29;;;;;;;7.85;4.90;;;11.30;99.90;;;;;;5029312;28;20181;-78
2023/03/22 00:49:55;;;;;;;9.38;5.10;;;11.30;99.90;;;;;;5031380;28;20181;-77
2023/03/22 00:52:20;;;;;;;7.20;5.85;;;11.30;99.90;;;;;;5023294;28;20207;-77
2023/03/22 00:54:46;;;;;;;5.85;5.25;;;11.30;99.90;;;;;;5023993;28;20563;-77
2023/03/22 00:57:13;;;;;;;6.55;5.20;;;11.30;99.90;;;;;;5027754;28;20661;-77
2023/03/22 00:59:39;;;;;;;7.35;5.00;;;11.30;99.90;;;;;;5027811;28;20260;-77
2023/03/22 01:02:05;;;;;;;5.65;4.88;;;11.30;99.90;;;;;;5027722;28;20204;-76
2023/03/22 01:04:32;;;;;;;5.63;4.90;;;11.20;99.90;;;;;;5032533;28;20676;-77
2023/03/22 01:07:02;;;;;;;5.13;3.95;;;11.20;99.90;;;;;;5030582;28;20191;-77
2023/03/22 01:09:29;;;;;;;6.97;4.68;;;11.20;99.90;;;;;;5030489;28;20188;-77
2023/03/22 01:11:56;;;;;;;4.57;4.18;;;11.30;99.90;;;;;;5022876;28;20358;-77
2023/03/22 01:14:23;;;;;;;4.82;4.43;;;11.20;99.90;;;;;;5031870;28;20686;-77
2023/03/22 01:16:49;;;;;;;4.88;4.40;;;11.20;99.90;;;;;;5029334;28;20207;-77
2023/03/22 01:19:16;;;;;;;7.25;5.10;;;11.20;99.90;;;;;;5032349;28;20212;-77
2023/03/22 01:21:42;;;;;;;5.68;4.35;;;11.20;99.90;;;;;;5028027;28;20201;-77
2023/03/22 01:24:08;;;;;;;6.78;4.32;;;11.20;99.90;;;;;;5032498;28;20235;-77
2023/03/22 01:26:34;;;;;;;4.47;4.07;;;11.10;99.90;;;;;;5034131;28;20219;-77
2023/03/22 01:29:00;;;;;;;4.65;4.25;;;11.10;99.90;;;;;;5034704;28;20204;-77
2023/03/22 01:31:26;;;;;;;4.70;4.03;;;11.10;99.90;;;;;;5025660;28;20196;-77
2023/03/22 01:33:51;;;;;;;4.88;4.47;;;11.10;99.90;;;;;;5035060;28;20181;-79
2023/03/22 01:36:17;;;;;;;5.85;5.20;;;11.10;99.90;;;;;;5029507;28;20183;-77
2023/03/22 01:38:42;;;;;;;5.13;4.20;;;11.10;99.90;;;;;;5030285;28;20200;-77
2023/03/22 01:41:08;;;;;;;5.80;4.25;;;11.00;99.90;;;;;;5035107;28;20208;-76
2023/03/22 01:43:34;;;;;;;5.30;4.50;;;10.90;99.90;;;;;;5029272;28;20176;-76
2023/03/22 01:45:59;;;;;;;4.43;4.05;;;10.90;99.90;;;;;;5031451;28;20640;-75
2023/03/22 01:48:44;;;;;;;7.28;4.90;;;10.80;99.90;;;;;;5032407;28;20633;-77
2023/03/22 01:51:21;;;;;;;5.28;4.78;;;10.80;99.90;;;;;;5027083;28;20578;-77
2023/03/22 01:53:54;;;;;;;4.65;4.22;;;10.80;99.90;;;;;;5030613;28;20188;-76
2023/03/22 01:56:24;;;;;;;5.95;4.80;;;10.70;99.90;;;;;;5034264;28;20287;-76
2023/03/22 01:58:52;;;;;;;5.43;4.93;;;10.60;99.90;;;;;;5027220;28;20213;-76
2023/03/22 02:01:18;;;;;;;5.45;4.95;;;10.50;99.90;;;;;;5032047;28;20201;-77
2023/03/22 02:04:08;;;;;;;5.80;4.95;;;10.40;99.90;;;;;;5021162;28;20219;-76
2023/03/22 02:06:37;;;;;;;5.65;5.05;;;10.20;99.90;;;;;;5027222;28;20184;-75
2023/03/22 02:09:11;;;;;;;6.90;5.18;;;10.10;99.90;;;;;;5025864;28;20183;-75
2023/03/22 02:11:40;;;;;;;5.68;5.18;;;10.00;99.90;;;;;;5022945;28;20204;-74
2023/03/22 02:14:24;;;;;;;6.10;5.50;;;10.00;99.90;;;;;;5032770;28;20210;-75
2023/03/22 02:16:53;;;;;;;5.30;4.70;;;9.90;99.90;;;;;;5034857;28;20251;-77
2023/03/22 02:19:28;;;;;;;7.93;5.57;;;9.90;99.90;;;;;;5028888;28;20651;-76
2023/03/22 02:22:22;;;;;;;5.55;5.05;;;10.00;99.90;;;;;;5033881;28;20292;-76
2023/03/22 02:25:17;;;;;;;6.22;5.65;;;10.00;99.90;;;;;;5026359;28;20192;-77
2023/03/22 02:28:07;;;;;;;6.28;5.68;;;10.00;99.90;;;;;;5025582;28;20192;-76
2023/03/22 02:31:12;;;;;;;6.38;5.78;;;9.90;99.90;;;;;;5028546;28;20285;-75
2023/03/22 02:33:49;;;;;;;5.90;5.40;;;9.80;99.90;;;;;;5012143;28;20196;-76
2023/03/22 02:36:46;;;;;;;6.38;5.53;;;9.80;99.90;;;;;;5028329;28;20211;-76
2023/03/22 02:39:27;;;;;;;7.63;5.50;;;9.90;99.90;;;;;;5022373;28;20208;-75
2023/03/22 02:42:16;;;;;;;6.88;5.75;;;9.90;99.90;;;;;;5026597;28;20687;-76
2023/03/22 02:45:11;;;;;;;6.78;6.18;;;10.00;99.90;;;;;;5030318;28;20678;-76
2023/03/22 02:48:05;;;;;;;6.93;6.15;;;10.10;99.90;;;;;;5023872;28;20315;-75
2023/03/22 02:50:50;;;;;;;6.10;5.53;;;10.10;99.90;;;;;;5025632;28;20185;-77
2023/03/22 02:53:27;;;;;;;6.80;5.97;;;10.20;99.90;;;;;;5034393;28;20195;-76
2023/03/22 02:56:11;;;;;;;7.30;6.30;;;10.20;99.90;;;;;;5024698;28;20214;-76
2023/03/22 02:58:44;;;;;;;6.13;5.55;;;10.10;99.90;;;;;;5021496;28;20201;-75
2023/03/22 03:01:17;;;;;;;7.28;5.47;;;10.10;99.90;;;;;;5034692;28;20227;-76
2023/03/22 03:03:47;;;;;;;7.00;6.28;;;10.10;99.90;;;;;;5031994;28;20169;-76
2023/03/22 03:06:16;;;;;;;5.35;4.75;;;10.10;99.90;;;;;;5031921;28;20180;-76
2023/03/22 03:08:45;;;;;;;6.05;4.88;;;10.10;99.90;;;;;;5023777;28;20733;-76
2023/03/22 03:11:11;;;;;;;7.07;5.80;;;10.10;99.90;;;;;;5030190;28;20195;-76
2023/03/22 03:13:37;;;;;;;8.45;5.60;;;10.10;99.90;;;;;;5033052;28;20206;-76
2023/03/22 03:16:06;;;;;;;5.97;5.40;;;10.10;99.90;;;;;;5030872;28;20198;-75
2023/03/22 03:18:45;;;;;;;10.00;5.93;;;10.20;99.90;;;;;;5027248;28;20214;-74
2023/03/22 03:21:23;;;;;;;5.55;5.05;;;10.20;99.90;;;;;;5031936;28;20191;-77
2023/03/22 03:23:57;;;;;;;5.57;5.07;;;10.10;99.90;;;;;;5030329;28;20183;-75
2023/03/22 03:26:48;;;;;;;5.43;4.88;;;10.10;99.90;;;;;;5032924;28;20194;-75
2023/03/22 03:29:30;;;;;;;5.90;5.03;;;10.10;99.90;;;;;;5029130;28;20184;-75
2023/03/22 03:32:25;;;;;;;5.90;5.30;;;10.20;99.90;;;;;;5030537;28;20622;-75
2023/03/22 03:34:56;;;;;;;5.60;5.07;;;10.20;99.90;;;;;;5030090;28;20666;-75
2023/03/22 03:37:27;;;;;;;6.03;5.22;;;10.10;99.90;;;;;;5032713;28;20245;-75
2023/03/22 03:40:10;;;;;;;5.80;5.03;;;9.90;99.90;;;;;;5031744;28;20185;-75
2023/03/22 03:42:39;;;;;;;6.65;5.93;;;9.80;99.90;;;;;;5032745;28;20260;-75
2023/03/22 03:45:07;;;;;;;7.13;5.88;;;9.70;99.90;;;;;;5029948;28;20172;-75
2023/03/22 03:47:34;;;;;;;6.60;5.97;;;9.50;99.90;;;;;;5023574;28;20213;-76
2023/03/22 03:50:01;;;;;;;8.13;6.00;;;9.40;99.90;;;;;;5034576;28;20168;-76
2023/03/22 03:52:28;;;;;;;6.47;5.75;;;9.30;99.90;;;;;;5038376;28;20295;-75
2023/03/22 03:54:54;;;;;;;6.93;5.85;;;9.20;99.90;;;;;;5032982;28;20198;-75
2023/03/22 03:57:19;;;;;;;6.43;5.90;;;9.10;99.90;;;;;;5031019;28;20188;-75
2023/03/22 03:59:45;;;;;;;6.60;5.93;;;8.90;99.90;;;;;;5032745;28;20659;-76
2023/03/22 04:02:11;;;;;;;6.85;6.20;;;8.90;99.90;;;;;;5032882;28;20547;-76
2023/03/22 04:04:37;;;;;;;6.75;6.15;;;8.80;99.90;;;;;;5023223;28;20686;-75
2023/03/22 04:07:04;;;;;;;6.00;5.50;;;8.70;99.90;;;;;;5029046;28;20177;-75
2023/03/22 04:09:33;;;;;;;6.55;5.65;;;8.60;99.90;;;;;;5025545;28;20527;-75
2023/03/22 04:11:58;;;;;;;6.78;5.97;;;8.60;99.90;;;;;;5032666;28;20208;-76
2023/03/22 04:14:25;;;;;;;7.60;6.00;;;8.50;99.90;;;;;;5034666;28;20702;-75
2023/03/22 04:16:51;;;;;;;6.38;5.65;;;8.40;99.90;;;;;;5029013;28;20304;-76
2023/03/22 04:19:17;;;;;;;6.32;5.80;;;8.40;99.90;;;;;;5028678;28;20212;-75
2023/03/22 04:21:43;;;;;;;6.13;5.60;;;8.30;99.90;;;;;;5031726;28;20209;-76
2023/03/22 04:24:09;;;;;;;8.30;6.28;;;8.20;99.90;;;;;;5027116;28;20208;-76
2023/03/22 04:26:35;;;;;;;6.97;5.43;;;8.20;99.90;;;;;;5029593;28;20173;-76
2023/03/22 04:29:03;;;;;;;7.60;5.82;;;8.10;99.90;;;;;;5034616;28;20183;-76
2023/03/22 04:31:30;;;;;;;6.65;6.15;;;8.10;99.90;;;;;;5024417;28;20213;-75
2023/03/22 04:33:56;;;;;;;6.88;5.85;;;8.10;99.90;;;;;;5016774;28;20184;-75
2023/03/22 04:36:23;;;;;;;6.22;5.72;;;8.00;99.90;;;;;;5032012;28;20246;-75
2023/03/22 04:38:50;;;;;;;6.60;5.20;;;8.00;99.90;;;;;;5028260;28;20718;-75
2023/03/22 04:41:15;;;;;;;6.80;6.20;;;8.00;99.90;;;;;;5027114;28;20197;-75
2023/03/22 04:43:41;;;;;;;6.95;5.95;;;8.00;99.90;;;;;;5035182;28;20207;-75
2023/03/22 04:46:08;;;;;;;8.50;5.95;;;7.90;99.90;;;;;;5030335;28;20174;-74
2023/03/22 04:48:37;;;;;;;8.25;5.82;;;7.80;99.90;;;;;;5029973;28;20177;-75
2023/03/22 04:51:08;;;;;;;7.28;6.55;;;7.70;99.90;;;;;;5030680;28;20204;-78
2023/03/22 04:53:38;;;;;;;7.40;6.28;;;7.70;99.90;;;;;;5029956;28;20202;-75
2023/03/22 04:56:06;;;;;;;6.97;5.60;;;7.60;99.90;;;;;;5029201;28;20174;-75
2023/03/22 04:58:34;;;;;;;6.88;6.25;;;7.50;99.90;;;;;;5027022;28;20205;-75
2023/03/22 05:01:00;;;;;;;5.97;5.47;;;7.50;99.90;;;;;;5027965;28;20291;-75
2023/03/22 05:03:25;;;;;;;9.07;6.18;;;7.40;99.90;;;;;;5026485;28;20197;-75
2023/03/22 05:05:52;;;;;;;7.35;6.28;;;7.40;99.90;;;;;;5026810;28;20219;-75
2023/03/22 05:08:19;;;;;;;6.95;6.25;;;7.30;99.90;;;;;;5026479;28;20675;-76
2023/03/22 05:10:45;;;;;;;8.02;6.00;;;7.30;99.90;;;;;;5030682;28;20205;-76
2023/03/22 05:13:11;;;;;;;12.65;6.75;;;7.20;99.90;;;;;;5025253;28;20246;-75
2023/03/22 05:15:40;;;;;;;6.78;6.18;;;7.20;99.90;;;;;;5027710;28;20189;-76
2023/03/22 05:18:06;;;;;;;8.57;6.47;;;7.20;99.90;;;;;;5022470;28;20216;-75
2023/03/22 05:20:32;;;;;;;8.70;6.80;;;7.20;99.90;;;;;;5021435;28;20205;-74
2023/03/22 05:23:01;;;;;;;7.70;6.97;;;7.20;99.90;;;;;;5030671;28;20274;-76
2023/03/22 05:25:27;;;;;;;9.68;7.70;;;7.20;99.90;;;;;;5027022;28;20265;-76
2023/03/22 05:27:53;;;;;;;7.35;6.65;;;7.20;99.90;;;;;;5022779;28;20267;-78
2023/03/22 05:30:19;;;;;;;7.07;6.35;;;7.20;99.90;;;;;;5028529;28;20203;-77
2023/03/22 05:32:46;;;;;;;8.27;7.47;;;7.20;99.90;;;;;;5023341;28;20686;-78
2023/03/22 05:35:12;;;;;;;7.78;6.53;;;7.20;99.90;;;;;;5033366;28;20184;-78
2023/03/22 05:37:38;;;;;;;8.35;7.57;;;7.20;99.90;;;;;;5031702;28;20187;-79
2023/03/22 05:40:08;;;;;;;7.40;6.68;;;7.30;99.90;;;;;;5025989;28;20184;-78
2023/03/22 05:42:35;;;;;;;8.13;7.45;;;7.40;99.90;;;;;;5022752;28;20282;-77
2023/03/22 05:45:01;;;;;;;8.57;7.72;;;7.50;99.90;;;;;;5025725;28;20173;-78
2023/03/22 05:47:26;;;;;;;9.73;7.72;;;7.60;99.90;;;;;;5028159;28;20184;-77
2023/03/22 05:49:52;;;;;;;8.32;7.53;;;7.60;99.90;;;;;;5024354;28;20188;-77
2023/03/22 05:52:18;;;;;;;9.20;7.00;;;7.80;99.90;;;;;;5027811;28;20286;-77
2023/03/22 05:54:43;;;;;;;7.82;7.13;;;7.80;99.90;;;;;;5030684;28;20195;-77
2023/03/22 05:57:09;;;;;;;7.60;6.93;;;7.90;99.90;;;;;;5026862;28;20632;-76
2023/03/22 05:59:35;;;;;;;7.43;6.38;;;8.00;99.90;;;;;;5029378;28;20208;-77
2023/03/22 06:02:00;;;;;;;7.85;7.15;;;8.10;99.90;;;;;;5029340;28;20204;-77
2023/03/22 06:04:26;;;;;;;8.55;7.75;;;8.30;99.90;;;;;;5026038;28;20258;-76
2023/03/22 06:06:52;;;;;;;8.48;7.35;;;8.40;99.90;;;;;;5027109;28;20647;-77
2023/03/22 06:09:18;;;;;;;7.90;7.10;;;8.50;99.90;;;;;;5021326;28;20185;-77
2023/03/22 06:11:44;;;;;;;9.85;7.45;;;8.50;99.90;;;;;;5026389;28;20207;-76
2023/03/22 06:14:10;;;;;;;8.95;7.70;;;8.60;99.90;;;;;;5027351;28;20212;-77
2023/03/22 06:16:35;;;;;;;10.20;7.75;;;8.80;99.90;;;;;;5020575;28;20247;-77
2023/03/22 06:19:01;;;;;;;7.82;7.03;;;8.90;99.90;;;;;;5027137;28;20616;-76
2023/03/22 06:21:26;;;;;;;8.13;7.35;;;9.00;99.90;;;;;;5024485;28;20220;-77
2023/03/22 06:23:52;;;;;;;7.85;7.07;;;9.10;99.90;;;;;;5031466;28;20175;-80
2023/03/22 06:26:18;;;;;;;8.82;7.93;;;9.20;99.90;;;;;;5044151;28;20190;-79
2023/03/22 06:28:43;;;;;;;7.40;6.70;;;9.40;99.90;;;;;;5034135;28;20268;-79
2023/03/22 06:31:09;;;;;;;8.32;7.63;;;9.50;99.90;;;;;;5041233;28;20197;-81
2023/03/22 06:33:36;;;;;;;10.43;6.63;;;9.60;99.90;;;;;;5038409;28;20193;-81
2023/03/22 06:36:02;;;;;;;8.70;7.20;;;9.70;99.90;;;;;;5041611;28;20216;-85
2023/03/22 06:38:29;;;;;;;7.97;6.80;;;9.90;99.90;;;;;;5031218;28;20205;-80
2023/03/22 06:41:00;;;;;;;8.43;7.53;;;10.00;99.90;;;;;;5040128;28;20687;-84
2023/03/22 06:43:26;;;;;;;8.35;7.50;;;10.10;99.90;;;;;;5036083;28;20641;-80
2023/03/22 06:45:52;;;;;;;8.95;7.45;;;10.30;99.90;;;;;;5041649;28;20180;-79
2023/03/22 06:48:17;;;;;;;8.13;7.22;;;10.40;99.90;;;;;;5027284;28;20189;-81
2023/03/22 06:50:43;;;;;;;8.07;7.38;;;10.50;99.90;;;;;;5030183;28;20208;-78
2023/03/22 06:53:09;;;;;;;8.52;7.53;;;10.70;99.90;;;;;;5026882;28;20548;-77
2023/03/22 06:55:35;;;;;;;8.10;6.78;;;10.80;99.90;;;;;;5019871;28;20185;-78
2023/03/22 06:58:01;;;;;;;10.75;7.65;;;10.90;99.90;;;;;;5026638;28;20646;-80
2023/03/22 07:00:38;;;;;;;7.95;6.95;;;10.90;99.90;;;;;;5033632;28;20181;-80
2023/03/22 07:03:03;;;;;;;10.18;7.03;;;11.10;99.90;;;;;;5033780;28;20180;-78
2023/03/22 07:05:30;;;;;;;8.43;7.63;;;11.20;99.90;;;;;;5029375;28;20184;-79
2023/03/22 07:07:56;;;;;;;8.07;7.32;;;11.30;99.90;;;;;;5031360;28;20216;-79
2023/03/22 07:10:21;;;;;;;9.18;7.63;;;11.30;99.90;;;;;;5028706;28;20621;-77
2023/03/22 07:12:47;;;;;;;10.60;8.13;;;11.30;99.90;;;;;;5032180;28;20271;-78
2023/03/22 07:15:13;;;;;;;7.60;6.85;;;11.40;99.90;;;;;;5026439;28;20602;-77
2023/03/22 07:17:39;;;;;;;9.80;7.50;;;11.40;99.90;;;;;;5027665;28;20188;-77
2023/03/22 07:20:05;;;;;;;9.73;8.30;;;11.30;99.90;;;;;;5018235;28;20181;-78
2023/03/22 07:22:31;;;;;;;8.13;7.30;;;11.20;99.90;;;;;;5027983;28;20213;-79
2023/03/22 07:24:57;;;;;;;8.93;7.93;;;11.20;99.90;;;;;;5025970;28;20234;-78
2023/03/22 07:27:22;;;;;;;12.65;7.65;;;11.20;99.90;;;;;;5026640;28;20176;-78
2023/03/22 07:29:48;;;;;;;9.00;8.10;;;11.30;99.90;;;;;;5021118;28;20189;-82
2023/03/22 07:32:31;;;;;;;11.70;8.30;;;11.30;99.90;;;;;;5034990;28;20201;-79
2023/03/22 07:35:15;;;;;;;;;;;;;;;;;;;;;
2023/03/22 07:38:06;;;;;;;8.13;7.28;;;11.40;99.90;;;;;;5033919;28;20275;-77
2023/03/22 07:40:32;;;;;;;8.40;7.68;;;11.50;99.90;;;;;;5033801;28;20181;-78
2023/03/22 07:46:03;;;;;;;8.35;7.45;;;11.60;99.90;;;;;;5030644;28;20196;-78
2023/03/22 07:48:30;;;;;;;8.90;7.88;;;11.60;99.90;;;;;;5029402;28;20193;-77
2023/03/22 07:50:55;;;;;;;10.23;8.65;;;11.60;99.90;;;;;;5037925;28;20227;-77
2023/03/22 07:53:21;;;;;;;9.05;8.32;;;11.60;99.90;;;;;;5037481;28;20180;-77
2023/03/22 07:55:47;;;;;;;9.60;8.05;;;11.60;99.90;;;;;;5033357;28;20692;-77
2023/03/22 07:58:13;;;;;;;9.85;7.63;;;11.70;99.90;;;;;;5038375;28;20671;-77
2023/03/22 08:00:39;;;;;;;9.10;8.02;;;11.80;99.90;;;;;;5032267;28;20197;-76
2023/03/22 08:03:05;;;;;;;8.10;7.35;;;11.80;99.90;;;;;;5022872;28;20682;-77
2023/03/22 08:05:30;;;;;;;8.45;7.65;;;11.90;99.90;;;;;;5033157;28;20260;-78
2023/03/22 08:07:56;;;;;;;8.75;7.85;;;11.80;99.90;;;;;;5041544;28;20316;-77
2023/03/22 08:10:24;;;;;;;8.32;7.35;;;11.80;99.90;;;;;;5036942;28;20188;-77
2023/03/22 08:12:50;;;;;;;8.63;7.72;;;11.80;99.90;;;;;;5038740;28;20176;-76
2023/03/22 08:15:16;;;;;;;8.73;7.85;;;11.90;99.90;;;;;;5028626;28;20199;-76
2023/03/22 08:17:41;;;;;;;9.05;7.00;;;12.00;99.90;;;;;;5032224;28;20258;-76
2023/03/22 08:20:08;;;;;;;8.43;7.63;;;12.20;99.90;;;;;;5028456;28;20208;-78
2023/03/22 08:22:35;;;;;;;9.40;7.47;;;12.20;99.90;;;;;;5030981;28;20243;-76
2023/03/22 08:25:02;;;;;;;7.63;6.93;;;12.30;99.90;;;;;;5034209;28;20628;-77
2023/03/22 08:27:28;;;;;;;8.45;7.63;;;12.40;99.90;;;;;;5032558;28;20192;-77
2023/03/22 08:29:53;;;;;;;7.85;7.15;;;12.50;99.90;;;;;;5028367;28;20185;-76
2023/03/22 08:32:19;;;;;;;7.93;7.15;;;12.60;99.90;;;;;;5036928;28;20216;-75
2023/03/22 08:34:45;;;;;;;8.27;7.43;;;12.60;99.90;;;;;;5031137;28;20260;-75
2023/03/22 08:37:11;;;;;;;8.95;7.72;;;12.60;99.90;;;;;;5028936;28;20185;-74
2023/03/22 08:39:37;;;;;;;8.52;7.72;;;12.80;99.90;;;;;;5025119;28;20213;-77
2023/03/22 08:42:03;;;;;;;8.82;7.95;;;12.90;99.90;;;;;;5037224;28;20226;-75
2023/03/22 08:44:29;;;;;;;8.25;7.55;;;13.20;99.90;;;;;;5036142;28;20168;-75
2023/03/22 08:46:55;;;;;;;8.48;7.65;;;13.30;99.90;;;;;;5027937;28;20275;-75
2023/03/22 08:49:21;;;;;;;8.25;7.45;;;13.40;99.90;;;;;;5030524;28;20180;-75
2023/03/22 08:51:47;;;;;;;7.68;6.90;;;13.70;99.90;;;;;;5032671;28;20253;-76
2023/03/22 08:54:12;;;;;;;9.32;7.30;;;13.90;99.90;;;;;;5026654;28;20180;-75
2023/03/22 08:56:38;;;;;;;7.35;6.75;;;14.20;99.90;;;;;;5028997;28;20703;-75
2023/03/22 08:59:05;;;;;;;7.88;7.28;;;14.70;99.90;;;;;;5032431;28;20200;-75
2023/03/22 09:01:31;;;;;;;7.50;6.78;;;15.90;99.90;;;;;;5032504;28;20655;-76
2023/03/22 09:03:57;;;;;;;7.13;6.43;;;17.80;99.90;;;;;;5030499;28;20180;-75
2023/03/22 09:06:24;;;;;;;6.70;6.10;;;20.00;99.90;;;;;;5032444;28;20210;-75
2023/03/22 09:08:53;;;;;;;7.45;5.95;;;21.80;95.60;;;;;;5030362;28;20189;-75
2023/03/22 09:11:19;;;;;;;5.88;5.32;;;23.40;90.10;;;;;;5029258;28;20228;-75
2023/03/22 09:13:46;;;;;;;6.13;5.63;;;24.50;81.60;;;;;;5029581;28;20268;-75
2023/03/22 09:16:12;;;;;;;6.70;5.35;;;25.10;74.70;;;;;;5025546;28;20247;-75
2023/03/22 09:18:38;;;;;;;5.60;5.20;;;24.90;73.10;;;;;;5029078;28;20699;-75
2023/03/22 09:21:06;;;;;;;5.43;4.90;;;24.10;74.20;;;;;;5028769;28;20232;-76
2023/03/22 09:23:32;;;;;;;6.55;5.15;;;23.80;75.20;;;;;;5027908;28;20211;-75
2023/03/22 09:26:05;;;;;;;5.15;4.80;;;24.70;73.30;;;;;;5030633;28;20268;-75
2023/03/22 09:28:32;;;;;;;5.18;4.78;;;26.20;68.10;;;;;;5030777;28;20219;-75
2023/03/22 09:31:03;;;;;;;5.63;5.07;;;27.40;63.40;;;;;;5029115;28;20204;-73
2023/03/22 09:33:29;;;;;;;5.25;4.75;;;28.40;59.80;;;;;;5028475;28;20200;-73
2023/03/22 09:35:55;;;;;;;5.10;4.70;;;29.30;58.40;;;;;;5029481;28;20540;-72
2023/03/22 09:38:21;;;;;;;5.00;4.70;;;30.30;55.30;;;;;;5022878;28;20555;-74
2023/03/22 09:41:01;;;;;;;4.95;4.28;;;30.60;53.70;;;;;;5024417;28;20672;-73
2023/03/22 09:43:36;;;;;;;4.45;4.15;;;31.10;52.90;;;;;;5029972;28;20666;-74
2023/03/22 09:46:06;;;;;;;4.75;4.35;;;31.90;51.20;;;;;;5026602;28;20555;-74
2023/03/22 09:48:39;;;;;;;4.43;4.13;;;32.20;50.00;;;;;;5024626;28;20180;-73
2023/03/22 09:51:12;;;;;;;4.00;3.70;;;32.70;47.90;;;;;;5034934;28;20272;-73
2023/03/22 09:53:37;;;;;;;3.58;3.30;;;32.80;47.00;;;;;;5025532;28;20185;-73
2023/03/22 09:56:09;;;;;;;3.55;3.30;;;32.40;45.60;;;;;;5031306;28;20670;-73
2023/03/22 09:58:51;;;;;;;3.75;3.35;;;32.40;44.90;;;;;;5018800;28;20192;-73
2023/03/22 10:01:34;;;;;;;3.53;3.25;;;32.40;43.70;;;;;;5025347;28;20291;-73
2023/03/22 10:04:25;;;;;;;3.40;3.10;;;32.60;43.60;;;;;;5028579;28;20172;-73
2023/03/22 10:07:05;;;;;;;3.60;3.30;;;33.10;43.60;;;;;;5024508;28;20183;-73
2023/03/22 10:09:38;;;;;;;3.88;3.67;;;33.50;44.00;;;;;;5029791;28;20180;-74
2023/03/22 10:12:18;;;;;;;2.92;2.78;;;33.50;42.30;;;;;;5012841;28;20722;-73
2023/03/22 10:14:57;;;;;;;3.25;3.05;;;32.70;42.20;;;;;;5010603;28;20193;-73
2023/03/22 10:17:25;;;;;;;2.38;2.28;;;32.60;42.80;;;;;;5011887;28;20690;-74
2023/03/22 10:20:04;;;;;;;3.25;3.03;;;32.80;42.10;;;;;;5014391;28;20209;-75
2023/03/22 10:22:35;;;;;;;2.97;2.78;;;31.70;43.50;;;;;;5014673;28;20226;-75
2023/03/22 10:25:03;;;;;;;2.72;2.53;;;31.50;43.70;;;;;;5009946;28;20181;-76
2023/03/22 10:27:30;;;;;;;2.60;2.50;;;31.50;42.40;;;;;;5018768;28;20533;-76
2023/03/22 10:30:22;;;;;;;2.20;2.10;;;31.30;42.40;;;;;;5004881;28;20782;-75
2023/03/22 10:32:51;;;;;;;2.15;2.05;;;30.80;43.00;;;;;;5015782;28;20321;-76
2023/03/22 10:35:17;;;;;;;2.85;2.40;;;30.00;43.40;;;;;;5026486;28;20192;-77
2023/03/22 10:37:46;;;;;;;2.42;2.22;;;29.90;44.10;;;;;;5033387;28;20203;-79
2023/03/22 10:40:25;;;;;;;3.05;2.75;;;30.00;44.10;;;;;;5025007;28;20181;-77
2023/03/22 10:43:08;;;;;;;2.53;2.33;;;29.90;44.30;;;;;;5032539;28;20222;-77
2023/03/22 10:45:35;;;;;;;2.72;2.53;;;30.00;43.50;;;;;;5026375;28;20181;-76
2023/03/22 10:48:09;;;;;;;2.60;2.40;;;30.50;42.70;;;;;;5029793;28;20670;-76
2023/03/22 10:50:41;;;;;;;2.58;2.38;;;30.90;42.20;;;;;;5028495;28;20208;-76
2023/03/22 10:53:41;;;;;;;2.67;2.30;;;31.20;43.20;;;;;;5024387;28;20188;-74
2023/03/22 10:56:15;;;;;;;2.92;2.22;;;31.60;41.70;;;;;;5021397;28;20271;-74
2023/03/22 10:58:41;;;;;;;2.70;2.50;;;32.40;40.60;;;;;;5032453;28;21095;-77
2023/03/22 11:01:13;;;;;;;2.28;2.08;;;32.50;40.20;;;;;;5030676;28;20200;-75
2023/03/22 11:03:41;;;;;;;2.47;2.38;;;32.30;40.30;;;;;;5026987;28;20180;-75
2023/03/22 11:06:25;;;;;;;2.33;2.13;;;32.30;40.40;;;;;;5025620;28;20655;-74
2023/03/22 11:08:57;;;;;;;3.22;2.20;;;32.90;39.90;;;;;;5030216;28;20268;-77
2023/03/22 11:11:25;;;;;;;2.40;2.20;;;32.80;39.40;;;;;;5026674;28;20219;-77
2023/03/22 11:14:11;;;;;;;2.00;1.90;;;32.90;39.80;;;;;;5029399;28;20203;-77
2023/03/22 11:16:43;;;;;;;2.90;2.15;;;33.10;40.20;;;;;;5035319;28;20674;-75
2023/03/22 11:19:16;;;;;;;2.63;2.47;;;33.30;39.80;;;;;;5033346;28;20558;-75
2023/03/22 11:21:43;;;;;;;2.45;2.25;;;33.30;39.50;;;;;;5030644;28;20224;-74
2023/03/22 11:24:13;;;;;;;2.45;2.35;;;33.30;39.30;;;;;;5021842;28;20180;-76
2023/03/22 11:26:38;;;;;;;2.22;2.03;;;33.00;40.30;;;;;;5025576;28;20183;-77
2023/03/22 11:29:06;;;;;;;2.00;1.90;;;33.70;40.10;;;;;;5025431;28;20172;-76
2023/03/22 11:31:49;;;;;;;2.83;2.15;;;34.40;37.90;;;;;;5025173;28;20199;-76
2023/03/22 11:34:20;;;;;;;1.58;1.52;;;34.30;37.40;;;;;;5030402;28;20584;-76
2023/03/22 11:36:53;;;;;;;1.77;1.67;;;33.50;38.00;;;;;;5021723;28;20188;-78
2023/03/22 11:39:21;;;;;;;1.95;1.85;;;33.00;38.50;;;;;;5013809;28;20257;-83
2023/03/22 11:41:47;;;;;;;2.00;1.90;;;33.40;38.90;;;;;;5021092;28;20234;-76
2023/03/22 11:44:18;;;;;;;1.70;1.60;;;33.90;38.00;;;;;;5022935;28;20180;-77
2023/03/22 11:46:56;;;;;;;2.42;2.20;;;33.50;38.60;;;;;;5024585;28;20558;-78
2023/03/22 11:49:26;;;;;;;1.90;1.80;;;33.10;38.70;;;;;;5020185;28;20199;-79
2023/03/22 11:51:54;;;;;;;2.03;1.80;;;33.30;38.60;;;;;;5028374;28;20591;-78
2023/03/22 11:54:25;;;;;;;1.60;1.55;;;33.80;38.20;;;;;;5024261;28;20560;-78
2023/03/22 11:56:56;;;;;;;2.40;1.73;;;34.00;37.90;;;;;;5022625;28;20237;-77
2023/03/22 11:59:24;;;;;;;2.05;1.73;;;33.80;37.70;;;;;;5028729;28;20213;-78
2023/03/22 12:01:57;;;;;;;1.80;1.70;;;33.30;38.40;;;;;;5026914;28;20727;-76
2023/03/22 12:04:30;;;;;;;1.80;1.65;;;33.60;38.60;;;;;;5023863;28;20207;-78
2023/03/22 12:06:59;;;;;;;1.75;1.65;;;34.00;37.50;;;;;;5018394;28;20180;-78
2023/03/22 12:09:45;;;;;;;1.90;1.80;;;33.50;37.30;;;;;;5020597;28;20326;-81
2023/03/22 12:12:21;;;;;;;3.05;1.65;;;32.20;38.70;;;;;;5028698;28;20208;-77
2023/03/22 12:14:56;;;;;;;1.88;1.77;;;32.20;39.20;;;;;;5025607;28;20195;-77
2023/03/22 12:17:31;;;;;;;2.83;2.15;;;32.40;39.10;;;;;;5021584;28;20997;-79
2023/03/22 12:20:33;;;;;;;2.03;1.92;;;32.20;39.20;;;;;;5024232;28;20211;-77
2023/03/22 12:23:00;;;;;;;1.48;1.38;;;33.00;38.70;;;;;;5024747;28;20694;-76
2023/03/22 12:25:31;;;;;;;2.35;2.15;;;33.30;40.00;;;;;;5014909;28;20318;-72
2023/03/22 12:28:02;;;;;;;2.05;1.77;;;33.40;38.50;;;;;;5019739;28;21709;-73
2023/03/22 12:30:39;;;;;;;2.40;2.30;;;33.70;38.50;;;;;;5017142;28;20243;-72
2023/03/22 12:33:27;;;;;;;2.50;1.75;;;33.60;38.50;;;;;;5009777;28;20613;-71
2023/03/22 12:36:00;;;;;;;1.95;1.83;;;33.30;38.30;;;;;;5013087;28;20181;-72
2023/03/22 12:38:50;;;;;;;1.85;1.67;;;32.40;38.90;;;;;;5010919;28;20219;-74
2023/03/22 12:41:24;;;;;;;2.60;2.40;;;31.30;40.40;;;;;;5015347;28;20205;-74
2023/03/22 12:44:10;;;;;;;1.90;1.77;;;30.90;41.40;;;;;;5016544;28;20185;-72
2023/03/22 12:46:43;;;;;;;2.20;1.85;;;31.10;40.70;;;;;;5012292;28;20191;-72
2023/03/22 12:49:35;;;;;;;3.60;1.60;;;30.90;40.70;;;;;;5008345;28;20207;-71
2023/03/22 12:52:38;;;;;;;1.95;1.83;;;31.10;40.70;;;;;;5013026;28;20204;-72
2023/03/22 12:55:05;;;;;;;2.25;1.70;;;31.70;39.90;;;;;;5013992;28;20179;-72
2023/03/22 12:57:31;;;;;;;1.98;1.77;;;31.40;40.20;;;;;;5020189;28;20222;-72
2023/03/22 13:00:04;;;;;;;2.10;2.00;;;31.20;40.80;;;;;;5010855;28;20284;-73
2023/03/22 13:02:33;;;;;;;2.05;1.95;;;31.00;40.80;;;;;;5028675;28;20227;-74
2023/03/22 13:05:03;;;;;;;2.13;2.03;;;30.70;41.20;;;;;;5024690;28;20486;-73
2023/03/22 13:07:46;;;;;;;2.38;2.17;;;30.70;41.60;;;;;;5025465;28;20180;-73
2023/03/22 13:10:30;;;;;;;1.90;1.80;;;31.10;41.80;;;;;;5030751;28;20544;-73